sensor_id;sensor_type;location;lat;lon;timestamp;temperature;humidity
17170;DHT22;8700;48.222;16.342;2023-03-23T00:02:42;13.40;99.90
17170;DHT22;8700;48.222;16.342;2023-03-23T00:06:03;13.40;99.90
17170;DHT22;8700;48.222;16.342;2023-03-23T00:09:25;13.40;99.90
17170;DHT22;8700;48.222;16.342;2023-03-23T00:12:48;13.20;99.90
17170;DHT22;8700;48.222;16.342;2023-03-23T00:16:10;13.10;99.90
17170;DHT22;8700;48.222;16.342;2023-03-23T00:19:37;13.00;99.90
17170;DHT22;8700;48.222;16.342;2023-03-23T00:23:05;13.00;99.90
17170;DHT22;8700;48.222;16.342;2023-03-23T00:26:27;12.90;99.90
17170;DHT22;8700;48.222;16.342;2023-03-23T00:29:51;12.80;99.90
17170;DHT22;8700;48.222;16.342;2023-03-23T00:33:13;12.80;99.90
17170;DHT22;8700;48.222;16.342;2023-03-23T00:36:36;12.80;99.90
17170;DHT22;8700;48.222;16.342;2023-03-23T00:40:03;12.80;99.90
17170;DHT22;8700;48.222;16.342;2023-03-23T00:43:30;12.70;99.90
17170;DHT22;8700;48.222;16.342;2023-03-23T00:46:53;12.50;99.90
17170;DHT22;8700;48.222;16.342;2023-03-23T00:50:16;12.50;99.90
17170;DHT22;8700;48.222;16.342;2023-03-23T00:53:38;12.40;99.90
17170;DHT22;8700;48.222;16.342;2023-03-23T00:57:00;12.20;99.90
17170;DHT22;8700;48.222;16.342;2023-03-23T01:00:22;12.20;99.90
17170;DHT22;8700;48.222;16.342;2023-03-23T01:03:44;12.20;99.90
17170;DHT22;8700;48.222;16.342;2023-03-23T01:07:06;12.20;99.90
17170;DHT22;8700;48.222;16.342;2023-03-23T01:10:28;12.30;99.90
17170;DHT22;8700;48.222;16.342;2023-03-23T01:13:52;12.10;99.90
17170;DHT22;8700;48.222;16.342;2023-03-23T01:17:13;12.00;99.90
17170;DHT22;8700;48.222;16.342;2023-03-23T01:20:36;11.90;99.90
17170;DHT22;8700;48.222;16.342;2023-03-23T01:23:58;11.90;99.90
17170;DHT22;8700;48.222;16.342;2023-03-23T01:27:19;11.80;99.90
17170;DHT22;8700;48.222;16.342;2023-03-23T01:30:40;11.70;99.90
17170;DHT22;8700;48.222;16.342;2023-03-23T01:34:02;11.80;99.90
17170;DHT22;8700;48.222;16.342;2023-03-23T01:37:24;11.80;99.90
17170;DHT22;8700;48.222;16.342;2023-03-23T01:40:46;11.80;99.90
17170;DHT22;8700;48.222;16.342;2023-03-23T01:48:11;12.00;99.90
17170;DHT22;8700;48.222;16.342;2023-03-23T01:51:35;12.10;99.90
17170;DHT22;8700;48.222;16.342;2023-03-23T01:54:59;12.20;99.90
17170;DHT22;8700;48.222;16.342;2023-03-23T01:58:24;12.30;99.90
17170;DHT22;8700;48.222;16.342;2023-03-23T02:01:47;12.30;99.90
17170;DHT22;8700;48.222;16.342;2023-03-23T02:05:15;12.30;99.90
17170;DHT22;8700;48.222;16.342;2023-03-23T02:08:40;12.20;99.90
17170;DHT22;8700;48.222;16.342;2023-03-23T02:12:05;12.10;99.90
17170;DHT22;8700;48.222;16.342;2023-03-23T02:15:34;12.20;99.90
17170;DHT22;8700;48.222;16.342;2023-03-23T02:19:12;12.20;99.90
17170;DHT22;8700;48.222;16.342;2023-03-23T02:23:07;12.30;99.90
17170;DHT22;8700;48.222;16.342;2023-03-23T02:26:41;12.20;99.90
17170;DHT22;8700;48.222;16.342;2023-03-23T02:30:17;12.10;99.90
17170;DHT22;8700;48.222;16.342;2023-03-23T02:33:47;12.20;99.90
17170;DHT22;8700;48.222;16.342;2023-03-23T02:37:14;12.00;99.90
17170;DHT22;8700;48.222;16.342;2023-03-23T02:40:40;11.90;99.90
17170;DHT22;8700;48.222;16.342;2023-03-23T02:44:03;11.90;99.90
17170;DHT22;8700;48.222;16.342;2023-03-23T02:47:26;11.90;99.90
17170;DHT22;8700;48.222;16.342;2023-03-23T02:50:51;12.00;99.90
17170;DHT22;8700;48.222;16.342;2023-03-23T02:54:15;12.00;99.90
17170;DHT22;8700;48.222;16.342;2023-03-23T02:57:38;11.90;99.90
17170;DHT22;8700;48.222;16.342;2023-03-23T03:00:59;11.90;99.90
17170;DHT22;8700;48.222;16.342;2023-03-23T03:04:22;12.00;99.90
17170;DHT22;8700;48.222;16.342;2023-03-23T03:07:53;12.00;99.90
17170;DHT22;8700;48.222;16.342;2023-03-23T03:11:19;12.00;99.90
17170;DHT22;8700;48.222;16.342;2023-03-23T03:14:45;11.90;99.90
17170;DHT22;8700;48.222;16.342;2023-03-23T03:18:15;11.90;99.90
17170;DHT22;8700;48.222;16.342;2023-03-23T03:21:40;12.00;99.90
17170;DHT22;8700;48.222;16.342;2023-03-23T03:25:05;12.00;99.90
17170;DHT22;8700;48.222;16.342;2023-03-23T03:28:27;12.00;99.90
17170;DHT22;8700;48.222;16.342;2023-03-23T03:31:50;12.00;99.90
17170;DHT22;8700;48.222;16.342;2023-03-23T03:35:15;12.00;99.90
17170;DHT22;8700;48.222;16.342;2023-03-23T03:38:47;11.80;99.90
17170;DHT22;8700;48.222;16.342;2023-03-23T03:42:10;11.70;99.90
17170;DHT22;8700;48.222;16.342;2023-03-23T03:45:31;11.60;99.90
17170;DHT22;8700;48.222;16.342;2023-03-23T03:48:53;11.60;99.90
17170;DHT22;8700;48.222;16.342;2023-03-23T03:52:14;11.50;99.90
17170;DHT22;8700;48.222;16.342;2023-03-23T03:55:35;11.50;99.90
17170;DHT22;8700;48.222;16.342;2023-03-23T03:58:59;11.60;99.90
17170;DHT22;8700;48.222;16.342;2023-03-23T04:02:21;11.70;99.90
17170;DHT22;8700;48.222;16.342;2023-03-23T04:05:43;11.80;99.90
17170;DHT22;8700;48.222;16.342;2023-03-23T04:09:05;11.70;99.90
17170;DHT22;8700;48.222;16.342;2023-03-23T04:12:27;11.80;99.90
17170;DHT22;8700;48.222;16.342;2023-03-23T04:15:49;11.70;99.90
17170;DHT22;8700;48.222;16.342;2023-03-23T04:19:11;11.70;99.90
17170;DHT22;8700;48.222;16.342;2023-03-23T04:22:33;11.60;99.90
17170;DHT22;8700;48.222;16.342;2023-03-23T04:25:54;11.50;99.90
17170;DHT22;8700;48.222;16.342;2023-03-23T04:29:17;11.30;99.90
17170;DHT22;8700;48.222;16.342;2023-03-23T04:32:40;11.40;99.90
17170;DHT22;8700;48.222;16.342;2023-03-23T04:36:02;11.40;99.90
17170;DHT22;8700;48.222;16.342;2023-03-23T04:39:25;11.40;99.90
17170;DHT22;8700;48.222;16.342;2023-03-23T04:42:48;11.50;99.90
17170;DHT22;8700;48.222;16.342;2023-03-23T04:46:11;11.30;99.90
17170;DHT22;8700;48.222;16.342;2023-03-23T04:49:39;11.20;99.90
17170;DHT22;8700;48.222;16.342;2023-03-23T04:53:04;11.10;99.90
17170;DHT22;8700;48.222;16.342;2023-03-23T04:56:25;11.20;99.90
17170;DHT22;8700;48.222;16.342;2023-03-23T04:59:46;11.10;99.90
17170;DHT22;8700;48.222;16.342;2023-03-23T05:03:07;11.00;99.90
17170;DHT22;8700;48.222;16.342;2023-03-23T05:06:31;11.00;99.90
17170;DHT22;8700;48.222;16.342;2023-03-23T05:09:52;10.90;99.90
17170;DHT22;8700;48.222;16.342;2023-03-23T05:13:13;10.80;99.90
17170;DHT22;8700;48.222;16.342;2023-03-23T05:16:36;11.00;99.90
17170;DHT22;8700;48.222;16.342;2023-03-23T05:19:57;11.00;99.90
17170;DHT22;8700;48.222;16.342;2023-03-23T05:23:20;11.10;99.90
17170;DHT22;8700;48.222;16.342;2023-03-23T05:26:44;11.30;99.90
17170;DHT22;8700;48.222;16.342;2023-03-23T05:30:08;11.30;99.90
17170;DHT22;8700;48.222;16.342;2023-03-23T05:33:30;11.30;99.90
17170;DHT22;8700;48.222;16.342;2023-03-23T05:36:52;11.40;99.90
17170;DHT22;8700;48.222;16.342;2023-03-23T05:40:16;11.60;99.90
17170;DHT22;8700;48.222;16.342;2023-03-23T05:43:38;11.70;99.90
17170;DHT22;8700;48.222;16.342;2023-03-23T05:46:59;11.90;99.90
17170;DHT22;8700;48.222;16.342;2023-03-23T05:50:20;12.00;99.90
17170;DHT22;8700;48.222;16.342;2023-03-23T05:53:41;12.10;99.90
17170;DHT22;8700;48.222;16.342;2023-03-23T05:57:04;12.20;99.90
17170;DHT22;8700;48.222;16.342;2023-03-23T06:00:25;12.40;99.90
17170;DHT22;8700;48.222;16.342;2023-03-23T06:03:49;12.70;99.90
17170;DHT22;8700;48.222;16.342;2023-03-23T06:07:13;12.80;99.90
17170;DHT22;8700;48.222;16.342;2023-03-23T06:10:34;12.90;99.90
17170;DHT22;8700;48.222;16.342;2023-03-23T06:13:57;12.90;99.90
17170;DHT22;8700;48.222;16.342;2023-03-23T06:17:18;13.00;99.90
17170;DHT22;8700;48.222;16.342;2023-03-23T06:20:40;12.90;99.90
17170;DHT22;8700;48.222;16.342;2023-03-23T06:24:06;13.10;99.90
17170;DHT22;8700;48.222;16.342;2023-03-23T06:27:29;13.30;99.90
17170;DHT22;8700;48.222;16.342;2023-03-23T06:30:51;13.40;99.90
17170;DHT22;8700;48.222;16.342;2023-03-23T06:34:12;13.60;99.90
17170;DHT22;8700;48.222;16.342;2023-03-23T06:37:34;13.70;99.90
17170;DHT22;8700;48.222;16.342;2023-03-23T06:40:56;13.80;99.90
17170;DHT22;8700;48.222;16.342;2023-03-23T06:44:17;13.90;99.90
17170;DHT22;8700;48.222;16.342;2023-03-23T06:47:40;14.00;99.90
17170;DHT22;8700;48.222;16.342;2023-03-23T06:51:01;14.20;99.90
17170;DHT22;8700;48.222;16.342;2023-03-23T06:54:23;14.20;99.90
17170;DHT22;8700;48.222;16.342;2023-03-23T06:57:44;14.30;99.90
17170;DHT22;8700;48.222;16.342;2023-03-23T07:01:06;14.40;99.90
17170;DHT22;8700;48.222;16.342;2023-03-23T07:04:29;14.20;99.90
17170;DHT22;8700;48.222;16.342;2023-03-23T07:07:51;14.20;99.90
17170;DHT22;8700;48.222;16.342;2023-03-23T07:11:12;14.40;99.90
17170;DHT22;8700;48.222;16.342;2023-03-23T07:14:34;14.60;99.90
17170;DHT22;8700;48.222;16.342;2023-03-23T07:17:55;14.70;99.90
17170;DHT22;8700;48.222;16.342;2023-03-23T07:21:18;15.00;99.90
17170;DHT22;8700;48.222;16.342;2023-03-23T07:24:39;15.10;99.90
17170;DHT22;8700;48.222;16.342;2023-03-23T07:28:01;15.10;99.90
17170;DHT22;8700;48.222;16.342;2023-03-23T07:31:23;15.10;99.90
17170;DHT22;8700;48.222;16.342;2023-03-23T07:34:44;15.30;99.90
17170;DHT22;8700;48.222;16.342;2023-03-23T07:38:07;15.40;99.90
17170;DHT22;8700;48.222;16.342;2023-03-23T07:41:29;15.70;99.90
17170;DHT22;8700;48.222;16.342;2023-03-23T07:44:51;16.00;99.90
17170;DHT22;8700;48.222;16.342;2023-03-23T07:48:12;16.00;99.90
17170;DHT22;8700;48.222;16.342;2023-03-23T07:51:34;16.10;99.90
17170;DHT22;8700;48.222;16.342;2023-03-23T07:54:59;16.10;99.90
17170;DHT22;8700;48.222;16.342;2023-03-23T07:58:22;16.00;99.90
17170;DHT22;8700;48.222;16.342;2023-03-23T08:01:44;15.90;99.90
17170;DHT22;8700;48.222;16.342;2023-03-23T08:05:05;16.00;99.90
17170;DHT22;8700;48.222;16.342;2023-03-23T08:08:28;16.10;99.90
17170;DHT22;8700;48.222;16.342;2023-03-23T08:11:56;16.20;99.90
17170;DHT22;8700;48.222;16.342;2023-03-23T08:15:22;16.10;99.90
17170;DHT22;8700;48.222;16.342;2023-03-23T08:18:43;16.00;99.90
17170;DHT22;8700;48.222;16.342;2023-03-23T08:22:05;15.90;99.90
17170;DHT22;8700;48.222;16.342;2023-03-23T08:25:28;16.00;99.90
17170;DHT22;8700;48.222;16.342;2023-03-23T08:28:52;16.00;99.90
17170;DHT22;8700;48.222;16.342;2023-03-23T08:32:14;15.90;99.90
17170;DHT22;8700;48.222;16.342;2023-03-23T08:35:36;15.70;99.90
17170;DHT22;8700;48.222;16.342;2023-03-23T08:38:57;15.70;99.90
17170;DHT22;8700;48.222;16.342;2023-03-23T08:42:19;15.60;99.90
17170;DHT22;8700;48.222;16.342;2023-03-23T08:45:42;15.50;99.90
17170;DHT22;8700;48.222;16.342;2023-03-23T08:49:03;15.50;99.90
17170;DHT22;8700;48.222;16.342;2023-03-23T08:52:25;15.40;99.90
17170;DHT22;8700;48.222;16.342;2023-03-23T08:55:47;15.40;99.90
17170;DHT22;8700;48.222;16.342;2023-03-23T08:59:08;15.50;99.90
17170;DHT22;8700;48.222;16.342;2023-03-23T09:02:31;15.70;99.90
17170;DHT22;8700;48.222;16.342;2023-03-23T09:05:58;15.50;99.90
17170;DHT22;8700;48.222;16.342;2023-03-23T09:09:20;15.70;99.90
17170;DHT22;8700;48.222;16.342;2023-03-23T09:12:41;16.20;99.90
17170;DHT22;8700;48.222;16.342;2023-03-23T09:16:03;17.50;99.90
17170;DHT22;8700;48.222;16.342;2023-03-23T09:19:26;18.90;99.90
17170;DHT22;8700;48.222;16.342;2023-03-23T09:22:50;20.30;99.90
17170;DHT22;8700;48.222;16.342;2023-03-23T09:26:12;21.40;97.10
17170;DHT22;8700;48.222;16.342;2023-03-23T09:29:33;22.40;94.20
17170;DHT22;8700;48.222;16.342;2023-03-23T09:32:55;22.70;91.10
17170;DHT22;8700;48.222;16.342;2023-03-23T09:36:19;22.80;87.20
17170;DHT22;8700;48.222;16.342;2023-03-23T09:39:41;23.00;85.10
17170;DHT22;8700;48.222;16.342;2023-03-23T09:43:13;23.20;85.90
17170;DHT22;8700;48.222;16.342;2023-03-23T09:46:48;23.70;83.40
17170;DHT22;8700;48.222;16.342;2023-03-23T09:50:13;23.90;80.60
17170;DHT22;8700;48.222;16.342;2023-03-23T09:53:38;24.40;79.40
17170;DHT22;8700;48.222;16.342;2023-03-23T09:57:00;24.70;76.50
17170;DHT22;8700;48.222;16.342;2023-03-23T10:00:25;24.90;73.90
17170;DHT22;8700;48.222;16.342;2023-03-23T10:03:47;25.00;72.80
17170;DHT22;8700;48.222;16.342;2023-03-23T10:07:11;25.10;70.60
17170;DHT22;8700;48.222;16.342;2023-03-23T10:10:43;25.00;71.00
17170;DHT22;8700;48.222;16.342;2023-03-23T10:14:21;25.00;70.60
17170;DHT22;8700;48.222;16.342;2023-03-23T10:17:48;25.00;69.80
17170;DHT22;8700;48.222;16.342;2023-03-23T10:21:13;25.10;70.40
17170;DHT22;8700;48.222;16.342;2023-03-23T10:24:43;26.00;69.10
17170;DHT22;8700;48.222;16.342;2023-03-23T10:28:13;26.60;65.80
17170;DHT22;8700;48.222;16.342;2023-03-23T10:31:38;27.20;64.50
17170;DHT22;8700;48.222;16.342;2023-03-23T10:35:03;26.70;65.40
17170;DHT22;8700;48.222;16.342;2023-03-23T10:38:27;26.70;64.80
17170;DHT22;8700;48.222;16.342;2023-03-23T10:41:50;26.10;65.60
17170;DHT22;8700;48.222;16.342;2023-03-23T10:45:17;26.30;65.20
17170;DHT22;8700;48.222;16.342;2023-03-23T10:48:41;26.40;65.50
17170;DHT22;8700;48.222;16.342;2023-03-23T10:52:10;26.80;64.50
17170;DHT22;8700;48.222;16.342;2023-03-23T10:55:38;27.40;64.10
17170;DHT22;8700;48.222;16.342;2023-03-23T10:59:10;27.30;63.20
17170;DHT22;8700;48.222;16.342;2023-03-23T11:02:38;26.20;64.60
17170;DHT22;8700;48.222;16.342;2023-03-23T11:06:02;27.40;63.30
17170;DHT22;8700;48.222;16.342;2023-03-23T11:09:34;27.80;62.60
17170;DHT22;8700;48.222;16.342;2023-03-23T11:12:57;28.30;61.60
17170;DHT22;8700;48.222;16.342;2023-03-23T11:16:25;28.40;60.60
17170;DHT22;8700;48.222;16.342;2023-03-23T11:19:49;27.20;59.40
17170;DHT22;8700;48.222;16.342;2023-03-23T11:23:19;26.40;60.80
17170;DHT22;8700;48.222;16.342;2023-03-23T11:26:44;25.90;61.60
17170;DHT22;8700;48.222;16.342;2023-03-23T11:30:09;26.10;62.10
17170;DHT22;8700;48.222;16.342;2023-03-23T11:33:36;27.00;61.10
17170;DHT22;8700;48.222;16.342;2023-03-23T11:37:02;27.60;60.00
17170;DHT22;8700;48.222;16.342;2023-03-23T11:40:25;28.80;58.70
17170;DHT22;8700;48.222;16.342;2023-03-23T11:43:47;27.70;58.40
17170;DHT22;8700;48.222;16.342;2023-03-23T11:47:17;26.30;60.80
17170;DHT22;8700;48.222;16.342;2023-03-23T11:50:47;26.20;60.40
17170;DHT22;8700;48.222;16.342;2023-03-23T11:54:15;25.20;62.10
17170;DHT22;8700;48.222;16.342;2023-03-23T11:57:37;25.60;62.30
17170;DHT22;8700;48.222;16.342;2023-03-23T12:01:04;25.60;62.90
17170;DHT22;8700;48.222;16.342;2023-03-23T12:04:47;25.30;61.90
17170;DHT22;8700;48.222;16.342;2023-03-23T12:08:19;25.50;61.80
17170;DHT22;8700;48.222;16.342;2023-03-23T12:11:52;24.70;62.60
17170;DHT22;8700;48.222;16.342;2023-03-23T12:15:21;23.90;63.60
17170;DHT22;8700;48.222;16.342;2023-03-23T12:18:49;23.50;64.50
17170;DHT22;8700;48.222;16.342;2023-03-23T12:22:22;23.40;65.00
17170;DHT22;8700;48.222;16.342;2023-03-23T12:26:11;23.50;65.10
17170;DHT22;8700;48.222;16.342;2023-03-23T12:29:43;23.60;64.10
17170;DHT22;8700;48.222;16.342;2023-03-23T12:33:19;23.50;63.90
17170;DHT22;8700;48.222;16.342;2023-03-23T12:36:56;23.40;66.20
17170;DHT22;8700;48.222;16.342;2023-03-23T12:40:36;23.60;65.30
17170;DHT22;8700;48.222;16.342;2023-03-23T12:44:02;24.20;65.00
17170;DHT22;8700;48.222;16.342;2023-03-23T12:47:34;23.90;65.90
17170;DHT22;8700;48.222;16.342;2023-03-23T12:51:10;23.70;65.50
17170;DHT22;8700;48.222;16.342;2023-03-23T12:54:38;24.20;65.10
17170;DHT22;8700;48.222;16.342;2023-03-23T12:58:03;23.90;65.80
17170;DHT22;8700;48.222;16.342;2023-03-23T13:01:30;23.70;65.70
17170;DHT22;8700;48.222;16.342;2023-03-23T13:05:00;23.40;66.20
17170;DHT22;8700;48.222;16.342;2023-03-23T13:08:26;24.00;65.30
17170;DHT22;8700;48.222;16.342;2023-03-23T13:11:49;24.00;64.80
17170;DHT22;8700;48.222;16.342;2023-03-23T13:15:22;24.10;65.60
17170;DHT22;8700;48.222;16.342;2023-03-23T13:18:52;23.50;67.10
17170;DHT22;8700;48.222;16.342;2023-03-23T13:22:20;23.40;67.60
17170;DHT22;8700;48.222;16.342;2023-03-23T13:25:52;23.10;68.20
17170;DHT22;8700;48.222;16.342;2023-03-23T13:29:15;23.10;67.80
17170;DHT22;8700;48.222;16.342;2023-03-23T13:32:40;22.90;68.60
17170;DHT22;8700;48.222;16.342;2023-03-23T13:36:05;23.10;68.70
17170;DHT22;8700;48.222;16.342;2023-03-23T13:39:31;23.50;67.20
17170;DHT22;8700;48.222;16.342;2023-03-23T13:42:55;23.50;67.90
17170;DHT22;8700;48.222;16.342;2023-03-23T13:46:28;23.80;67.50
17170;DHT22;8700;48.222;16.342;2023-03-23T13:49:52;23.40;67.60
17170;DHT22;8700;48.222;16.342;2023-03-23T13:53:21;22.80;69.00
17170;DHT22;8700;48.222;16.342;2023-03-23T13:56:53;23.20;68.60
17170;DHT22;8700;48.222;16.342;2023-03-23T14:00:45;23.30;68.20
17170;DHT22;8700;48.222;16.342;2023-03-23T14:04:10;23.60;68.10
17170;DHT22;8700;48.222;16.342;2023-03-23T14:07:52;23.90;67.90
17170;DHT22;8700;48.222;16.342;2023-03-23T14:11:17;23.80;67.60
17170;DHT22;8700;48.222;16.342;2023-03-23T14:14:43;23.60;68.40
17170;DHT22;8700;48.222;16.342;2023-03-23T14:18:05;23.80;68.20
17170;DHT22;8700;48.222;16.342;2023-03-23T14:21:37;23.60;68.10
17170;DHT22;8700;48.222;16.342;2023-03-23T14:25:00;23.80;68.60
17170;DHT22;8700;48.222;16.342;2023-03-23T14:28:29;23.90;67.50
17170;DHT22;8700;48.222;16.342;2023-03-23T14:31:54;23.90;67.40
17170;DHT22;8700;48.222;16.342;2023-03-23T14:35:21;23.60;67.70
17170;DHT22;8700;48.222;16.342;2023-03-23T14:38:43;23.80;67.60
17170;DHT22;8700;48.222;16.342;2023-03-23T14:42:06;24.50;67.10
17170;DHT22;8700;48.222;16.342;2023-03-23T14:45:28;24.10;66.50
17170;DHT22;8700;48.222;16.342;2023-03-23T14:48:55;24.00;66.80
17170;DHT22;8700;48.222;16.342;2023-03-23T14:52:17;23.40;67.50
17170;DHT22;8700;48.222;16.342;2023-03-23T14:55:42;23.30;67.70
17170;DHT22;8700;48.222;16.342;2023-03-23T14:59:05;23.60;67.50
17170;DHT22;8700;48.222;16.342;2023-03-23T15:02:31;23.70;66.90
17170;DHT22;8700;48.222;16.342;2023-03-23T15:05:56;24.10;66.70
17170;DHT22;8700;48.222;16.342;2023-03-23T15:09:20;23.60;67.10
17170;DHT22;8700;48.222;16.342;2023-03-23T15:12:47;23.30;67.40
17170;DHT22;8700;48.222;16.342;2023-03-23T15:16:13;22.90;68.10
17170;DHT22;8700;48.222;16.342;2023-03-23T15:19:37;22.90;67.80
17170;DHT22;8700;48.222;16.342;2023-03-23T15:23:07;22.90;66.90
17170;DHT22;8700;48.222;16.342;2023-03-23T15:26:32;23.00;66.80
17170;DHT22;8700;48.222;16.342;2023-03-23T15:29:55;22.80;66.90
17170;DHT22;8700;48.222;16.342;2023-03-23T15:33:17;23.00;67.50
17170;DHT22;8700;48.222;16.342;2023-03-23T15:36:40;22.80;66.80
17170;DHT22;8700;48.222;16.342;2023-03-23T15:40:13;22.60;67.40
17170;DHT22;8700;48.222;16.342;2023-03-23T15:43:48;22.50;67.50
17170;DHT22;8700;48.222;16.342;2023-03-23T15:47:15;22.50;67.40
17170;DHT22;8700;48.222;16.342;2023-03-23T15:50:37;22.70;67.20
17170;DHT22;8700;48.222;16.342;2023-03-23T15:54:01;22.70;66.30
17170;DHT22;8700;48.222;16.342;2023-03-23T15:57:24;22.60;66.20
17170;DHT22;8700;48.222;16.342;2023-03-23T16:00:45;22.60;66.20
17170;DHT22;8700;48.222;16.342;2023-03-23T16:04:10;22.60;66.00
17170;DHT22;8700;48.222;16.342;2023-03-23T16:07:32;22.50;66.80
17170;DHT22;8700;48.222;16.342;2023-03-23T16:10:54;22.50;66.70
17170;DHT22;8700;48.222;16.342;2023-03-23T16:14:16;22.20;67.80
17170;DHT22;8700;48.222;16.342;2023-03-23T16:17:38;22.00;68.70
17170;DHT22;8700;48.222;16.342;2023-03-23T16:20:59;22.00;68.90
17170;DHT22;8700;48.222;16.342;2023-03-23T16:24:22;22.00;69.10
17170;DHT22;8700;48.222;16.342;2023-03-23T16:27:44;21.90;71.30
17170;DHT22;8700;48.222;16.342;2023-03-23T16:31:10;22.00;69.70
17170;DHT22;8700;48.222;16.342;2023-03-23T16:34:31;22.00;70.10
17170;DHT22;8700;48.222;16.342;2023-03-23T16:37:55;21.90;70.70
17170;DHT22;8700;48.222;16.342;2023-03-23T16:41:17;21.90;71.40
17170;DHT22;8700;48.222;16.342;2023-03-23T16:44:38;21.70;70.70
17170;DHT22;8700;48.222;16.342;2023-03-23T16:48:00;21.70;71.80
17170;DHT22;8700;48.222;16.342;2023-03-23T16:51:21;21.60;71.30
17170;DHT22;8700;48.222;16.342;2023-03-23T16:54:43;21.50;71.00
17170;DHT22;8700;48.222;16.342;2023-03-23T16:58:05;21.50;71.40
17170;DHT22;8700;48.222;16.342;2023-03-23T17:01:27;21.40;71.70
17170;DHT22;8700;48.222;16.342;2023-03-23T17:04:49;21.30;72.00
17170;DHT22;8700;48.222;16.342;2023-03-23T17:08:11;21.30;72.20
17170;DHT22;8700;48.222;16.342;2023-03-23T17:11:32;21.20;72.70
17170;DHT22;8700;48.222;16.342;2023-03-23T17:14:53;21.20;73.00
17170;DHT22;8700;48.222;16.342;2023-03-23T17:18:14;21.20;73.40
17170;DHT22;8700;48.222;16.342;2023-03-23T17:21:37;21.10;73.70
17170;DHT22;8700;48.222;16.342;2023-03-23T17:24:58;21.10;74.50
17170;DHT22;8700;48.222;16.342;2023-03-23T17:28:21;20.90;75.10
17170;DHT22;8700;48.222;16.342;2023-03-23T17:31:42;20.90;75.50
17170;DHT22;8700;48.222;16.342;2023-03-23T17:35:04;20.80;75.90
17170;DHT22;8700;48.222;16.342;2023-03-23T17:38:27;20.80;76.30
17170;DHT22;8700;48.222;16.342;2023-03-23T17:41:48;20.70;76.80
17170;DHT22;8700;48.222;16.342;2023-03-23T17:45:09;20.60;77.50
17170;DHT22;8700;48.222;16.342;2023-03-23T17:48:31;20.50;78.20
17170;DHT22;8700;48.222;16.342;2023-03-23T17:51:52;20.50;78.70
17170;DHT22;8700;48.222;16.342;2023-03-23T17:55:15;20.40;79.00
17170;DHT22;8700;48.222;16.342;2023-03-23T17:58:36;20.40;79.30
17170;DHT22;8700;48.222;16.342;2023-03-23T18:01:57;20.40;79.60
17170;DHT22;8700;48.222;16.342;2023-03-23T18:05:19;20.30;80.90
17170;DHT22;8700;48.222;16.342;2023-03-23T18:08:40;20.10;81.70
17170;DHT22;8700;48.222;16.342;2023-03-23T18:12:03;20.10;82.40
17170;DHT22;8700;48.222;16.342;2023-03-23T18:15:25;20.00;82.80
17170;DHT22;8700;48.222;16.342;2023-03-23T18:18:47;20.00;83.20
17170;DHT22;8700;48.222;16.342;2023-03-23T18:22:09;20.00;83.50
17170;DHT22;8700;48.222;16.342;2023-03-23T18:25:33;19.90;83.80
17170;DHT22;8700;48.222;16.342;2023-03-23T18:28:56;19.90;84.00
17170;DHT22;8700;48.222;16.342;2023-03-23T18:32:17;19.90;84.40
17170;DHT22;8700;48.222;16.342;2023-03-23T18:35:38;19.90;84.70
17170;DHT22;8700;48.222;16.342;2023-03-23T18:39:00;19.90;84.90
17170;DHT22;8700;48.222;16.342;2023-03-23T18:42:21;19.90;85.50
17170;DHT22;8700;48.222;16.342;2023-03-23T18:45:48;19.70;86.10
17170;DHT22;8700;48.222;16.342;2023-03-23T18:49:10;19.60;86.70
17170;DHT22;8700;48.222;16.342;2023-03-23T18:52:31;19.40;87.60
17170;DHT22;8700;48.222;16.342;2023-03-23T18:55:54;19.30;88.20
17170;DHT22;8700;48.222;16.342;2023-03-23T18:59:23;19.30;88.90
17170;DHT22;8700;48.222;16.342;2023-03-23T19:02:50;19.30;89.50
17170;DHT22;8700;48.222;16.342;2023-03-23T19:06:17;19.20;90.20
17170;DHT22;8700;48.222;16.342;2023-03-23T19:09:40;19.20;90.30
17170;DHT22;8700;48.222;16.342;2023-03-23T19:13:02;19.00;90.70
17170;DHT22;8700;48.222;16.342;2023-03-23T19:16:24;18.90;90.90
17170;DHT22;8700;48.222;16.342;2023-03-23T19:19:46;18.90;91.10
17170;DHT22;8700;48.222;16.342;2023-03-23T19:23:08;18.90;91.40
17170;DHT22;8700;48.222;16.342;2023-03-23T19:26:31;18.80;91.70
17170;DHT22;8700;48.222;16.342;2023-03-23T19:29:52;18.80;91.90
17170;DHT22;8700;48.222;16.342;2023-03-23T19:33:14;18.80;92.00
17170;DHT22;8700;48.222;16.342;2023-03-23T19:36:39;18.70;92.50
17170;DHT22;8700;48.222;16.342;2023-03-23T19:40:00;18.50;93.00
17170;DHT22;8700;48.222;16.342;2023-03-23T19:43:23;18.40;93.30
17170;DHT22;8700;48.222;16.342;2023-03-23T19:46:45;18.40;93.70
17170;DHT22;8700;48.222;16.342;2023-03-23T19:50:07;18.20;94.30
17170;DHT22;8700;48.222;16.342;2023-03-23T19:53:30;18.10;94.80
17170;DHT22;8700;48.222;16.342;2023-03-23T19:56:51;18.00;95.50
17170;DHT22;8700;48.222;16.342;2023-03-23T20:00:13;18.00;95.90
17170;DHT22;8700;48.222;16.342;2023-03-23T20:03:34;18.00;96.40
17170;DHT22;8700;48.222;16.342;2023-03-23T20:06:56;18.00;96.60
17170;DHT22;8700;48.222;16.342;2023-03-23T20:10:19;18.10;96.80
17170;DHT22;8700;48.222;16.342;2023-03-23T20:13:41;18.10;97.20
17170;DHT22;8700;48.222;16.342;2023-03-23T20:17:03;18.10;97.20
17170;DHT22;8700;48.222;16.342;2023-03-23T20:20:28;18.10;97.30
17170;DHT22;8700;48.222;16.342;2023-03-23T20:23:51;18.00;97.40
17170;DHT22;8700;48.222;16.342;2023-03-23T20:27:14;18.10;97.50
17170;DHT22;8700;48.222;16.342;2023-03-23T20:30:36;18.00;97.90
17170;DHT22;8700;48.222;16.342;2023-03-23T20:33:59;17.90;98.20
17170;DHT22;8700;48.222;16.342;2023-03-23T20:37:21;17.90;98.40
17170;DHT22;8700;48.222;16.342;2023-03-23T20:40:43;17.90;98.80
17170;DHT22;8700;48.222;16.342;2023-03-23T20:44:09;17.90;98.90
17170;DHT22;8700;48.222;16.342;2023-03-23T20:47:32;17.90;99.00
17170;DHT22;8700;48.222;16.342;2023-03-23T20:50:53;18.00;99.20
17170;DHT22;8700;48.222;16.342;2023-03-23T20:54:17;17.90;99.40
17170;DHT22;8700;48.222;16.342;2023-03-23T20:57:38;17.80;99.70
17170;DHT22;8700;48.222;16.342;2023-03-23T21:01:03;17.80;99.90
17170;DHT22;8700;48.222;16.342;2023-03-23T21:04:25;17.60;99.90
17170;DHT22;8700;48.222;16.342;2023-03-23T21:07:46;17.50;99.90
17170;DHT22;8700;48.222;16.342;2023-03-23T21:11:16;17.50;99.90
17170;DHT22;8700;48.222;16.342;2023-03-23T21:14:38;17.50;99.90
17170;DHT22;8700;48.222;16.342;2023-03-23T21:18:01;17.50;99.90
17170;DHT22;8700;48.222;16.342;2023-03-23T21:21:24;17.70;99.90
17170;DHT22;8700;48.222;16.342;2023-03-23T21:24:47;17.60;99.90
17170;DHT22;8700;48.222;16.342;2023-03-23T21:28:10;17.50;99.90
17170;DHT22;8700;48.222;16.342;2023-03-23T21:31:32;17.50;99.90
17170;DHT22;8700;48.222;16.342;2023-03-23T21:34:56;17.50;99.90